sensor_id;sensor_type;location;lat;lon;timestamp;P1;durP1;ratioP1;P2;durP2;ratioP2
57331;SDS011;43164;50.908;18.092;2024-03-08T00:00:11;26.00;;;13.90;;
57331;SDS011;43164;50.908;18.092;2024-03-08T00:02:39;27.70;;;13.80;;
57331;SDS011;43164;50.908;18.092;2024-03-08T00:05:08;24.30;;;12.80;;
57331;SDS011;43164;50.908;18.092;2024-03-08T00:07:35;23.10;;;11.50;;
57331;SDS011;43164;50.908;18.092;2024-03-08T00:10:03;23.30;;;11.20;;
57331;SDS011;43164;50.908;18.092;2024-03-08T00:12:31;23.60;;;11.70;;
57331;SDS011;43164;50.908;18.092;2024-03-08T00:14:59;27.00;;;13.60;;
57331;SDS011;43164;50.908;18.092;2024-03-08T00:17:26;28.40;;;14.30;;
57331;SDS011;43164;50.908;18.092;2024-03-08T00:19:52;28.80;;;13.40;;
57331;SDS011;43164;50.908;18.092;2024-03-08T00:22:19;29.10;;;14.00;;
57331;SDS011;43164;50.908;18.092;2024-03-08T00:24:48;23.70;;;12.00;;
57331;SDS011;43164;50.908;18.092;2024-03-08T00:27:20;26.00;;;12.90;;
57331;SDS011;43164;50.908;18.092;2024-03-08T00:29:47;27.40;;;14.60;;
57331;SDS011;43164;50.908;18.092;2024-03-08T00:32:13;29.90;;;14.60;;
57331;SDS011;43164;50.908;18.092;2024-03-08T00:34:41;27.60;;;13.50;;
57331;SDS011;43164;50.908;18.092;2024-03-08T00:37:09;29.00;;;13.80;;
57331;SDS011;43164;50.908;18.092;2024-03-08T00:39:36;26.90;;;13.50;;
57331;SDS011;43164;50.908;18.092;2024-03-08T00:42:04;35.60;;;15.80;;
57331;SDS011;43164;50.908;18.092;2024-03-08T00:44:32;30.80;;;14.80;;
57331;SDS011;43164;50.908;18.092;2024-03-08T00:47:00;29.20;;;15.40;;
57331;SDS011;43164;50.908;18.092;2024-03-08T00:49:28;33.10;;;15.10;;
57331;SDS011;43164;50.908;18.092;2024-03-08T00:51:56;35.00;;;15.80;;
57331;SDS011;43164;50.908;18.092;2024-03-08T00:54:23;33.80;;;16.80;;
57331;SDS011;43164;50.908;18.092;2024-03-08T00:56:50;32.80;;;16.50;;
57331;SDS011;43164;50.908;18.092;2024-03-08T00:59:18;29.70;;;15.40;;
57331;SDS011;43164;50.908;18.092;2024-03-08T01:01:46;35.90;;;16.10;;
57331;SDS011;43164;50.908;18.092;2024-03-08T01:07:37;35.60;;;18.40;;
57331;SDS011;43164;50.908;18.092;2024-03-08T01:10:05;34.00;;;18.00;;
57331;SDS011;43164;50.908;18.092;2024-03-08T01:12:42;34.40;;;17.40;;
57331;SDS011;43164;50.908;18.092;2024-03-08T01:15:10;35.80;;;17.10;;
57331;SDS011;43164;50.908;18.092;2024-03-08T01:17:39;38.80;;;18.40;;
57331;SDS011;43164;50.908;18.092;2024-03-08T01:20:07;36.70;;;17.50;;
57331;SDS011;43164;50.908;18.092;2024-03-08T01:22:40;34.50;;;18.00;;
57331;SDS011;43164;50.908;18.092;2024-03-08T01:25:08;37.30;;;17.90;;
57331;SDS011;43164;50.908;18.092;2024-03-08T01:27:37;36.80;;;16.90;;
57331;SDS011;43164;50.908;18.092;2024-03-08T01:30:05;34.70;;;18.30;;
57331;SDS011;43164;50.908;18.092;2024-03-08T01:32:33;39.70;;;19.10;;
57331;SDS011;43164;50.908;18.092;2024-03-08T01:35:01;39.90;;;18.70;;
57331;SDS011;43164;50.908;18.092;2024-03-08T01:37:30;36.30;;;18.00;;
57331;SDS011;43164;50.908;18.092;2024-03-08T01:39:57;35.90;;;18.20;;
57331;SDS011;43164;50.908;18.092;2024-03-08T01:42:25;43.30;;;19.80;;
57331;SDS011;43164;50.908;18.092;2024-03-08T01:44:52;39.30;;;20.00;;
57331;SDS011;43164;50.908;18.092;2024-03-08T01:47:21;38.00;;;18.80;;
57331;SDS011;43164;50.908;18.092;2024-03-08T01:49:50;41.40;;;18.90;;
57331;SDS011;43164;50.908;18.092;2024-03-08T01:52:18;42.30;;;19.60;;
57331;SDS011;43164;50.908;18.092;2024-03-08T01:54:47;34.50;;;16.40;;
57331;SDS011;43164;50.908;18.092;2024-03-08T01:57:14;37.30;;;18.70;;
57331;SDS011;43164;50.908;18.092;2024-03-08T01:59:42;36.90;;;18.00;;
57331;SDS011;43164;50.908;18.092;2024-03-08T02:02:10;37.00;;;18.20;;
57331;SDS011;43164;50.908;18.092;2024-03-08T02:04:40;41.40;;;18.90;;
57331;SDS011;43164;50.908;18.092;2024-03-08T02:07:07;37.70;;;19.00;;
57331;SDS011;43164;50.908;18.092;2024-03-08T02:09:35;34.10;;;18.30;;
57331;SDS011;43164;50.908;18.092;2024-03-08T02:12:02;36.70;;;18.70;;
57331;SDS011;43164;50.908;18.092;2024-03-08T02:14:30;35.50;;;17.90;;
57331;SDS011;43164;50.908;18.092;2024-03-08T02:17:00;32.70;;;16.70;;
57331;SDS011;43164;50.908;18.092;2024-03-08T02:21:59;32.60;;;16.10;;
57331;SDS011;43164;50.908;18.092;2024-03-08T02:24:27;36.90;;;16.80;;
57331;SDS011;43164;50.908;18.092;2024-03-08T02:26:55;36.30;;;17.90;;
57331;SDS011;43164;50.908;18.092;2024-03-08T02:29:26;38.30;;;18.50;;
57331;SDS011;43164;50.908;18.092;2024-03-08T02:31:53;40.10;;;18.60;;
57331;SDS011;43164;50.908;18.092;2024-03-08T02:34:21;38.70;;;19.00;;
57331;SDS011;43164;50.908;18.092;2024-03-08T02:36:48;34.80;;;17.50;;
57331;SDS011;43164;50.908;18.092;2024-03-08T02:39:15;38.40;;;20.50;;
57331;SDS011;43164;50.908;18.092;2024-03-08T02:41:43;38.30;;;19.00;;
57331;SDS011;43164;50.908;18.092;2024-03-08T02:44:11;36.90;;;19.10;;
57331;SDS011;43164;50.908;18.092;2024-03-08T02:46:39;40.60;;;19.50;;
57331;SDS011;43164;50.908;18.092;2024-03-08T02:49:07;41.70;;;20.40;;
57331;SDS011;43164;50.908;18.092;2024-03-08T02:51:34;44.90;;;20.10;;
57331;SDS011;43164;50.908;18.092;2024-03-08T02:54:06;36.30;;;17.00;;
57331;SDS011;43164;50.908;18.092;2024-03-08T02:56:32;36.40;;;17.50;;
57331;SDS011;43164;50.908;18.092;2024-03-08T02:59:01;36.50;;;17.20;;
57331;SDS011;43164;50.908;18.092;2024-03-08T03:01:29;36.80;;;19.50;;
57331;SDS011;43164;50.908;18.092;2024-03-08T03:03:58;36.10;;;19.40;;
57331;SDS011;43164;50.908;18.092;2024-03-08T03:06:28;40.40;;;19.20;;
57331;SDS011;43164;50.908;18.092;2024-03-08T03:08:55;41.30;;;20.80;;
57331;SDS011;43164;50.908;18.092;2024-03-08T03:11:24;41.50;;;20.40;;
57331;SDS011;43164;50.908;18.092;2024-03-08T03:13:51;37.50;;;18.80;;
57331;SDS011;43164;50.908;18.092;2024-03-08T03:16:19;38.80;;;18.10;;
57331;SDS011;43164;50.908;18.092;2024-03-08T03:18:46;37.60;;;19.00;;
57331;SDS011;43164;50.908;18.092;2024-03-08T03:21:14;38.10;;;19.00;;
57331;SDS011;43164;50.908;18.092;2024-03-08T03:23:40;36.20;;;17.50;;
57331;SDS011;43164;50.908;18.092;2024-03-08T03:26:11;40.40;;;19.90;;
57331;SDS011;43164;50.908;18.092;2024-03-08T03:28:39;37.60;;;19.60;;
57331;SDS011;43164;50.908;18.092;2024-03-08T03:31:07;40.90;;;21.00;;
57331;SDS011;43164;50.908;18.092;2024-03-08T03:33:36;38.70;;;19.10;;
57331;SDS011;43164;50.908;18.092;2024-03-08T03:36:04;41.40;;;19.70;;
57331;SDS011;43164;50.908;18.092;2024-03-08T03:38:32;43.70;;;20.70;;
57331;SDS011;43164;50.908;18.092;2024-03-08T03:41:01;43.20;;;20.10;;
57331;SDS011;43164;50.908;18.092;2024-03-08T03:43:37;40.30;;;19.50;;
57331;SDS011;43164;50.908;18.092;2024-03-08T03:46:08;41.40;;;20.20;;
57331;SDS011;43164;50.908;18.092;2024-03-08T03:48:37;41.30;;;20.20;;
57331;SDS011;43164;50.908;18.092;2024-03-08T03:51:03;38.70;;;19.10;;
57331;SDS011;43164;50.908;18.092;2024-03-08T03:53:30;43.50;;;20.80;;
57331;SDS011;43164;50.908;18.092;2024-03-08T03:55:59;40.30;;;19.80;;
57331;SDS011;43164;50.908;18.092;2024-03-08T03:58:27;38.60;;;19.80;;
57331;SDS011;43164;50.908;18.092;2024-03-08T04:00:54;44.50;;;20.70;;
57331;SDS011;43164;50.908;18.092;2024-03-08T04:03:21;41.60;;;20.30;;
57331;SDS011;43164;50.908;18.092;2024-03-08T04:05:48;45.40;;;21.70;;
57331;SDS011;43164;50.908;18.092;2024-03-08T04:08:16;45.80;;;20.40;;
57331;SDS011;43164;50.908;18.092;2024-03-08T04:10:43;42.20;;;19.60;;
57331;SDS011;43164;50.908;18.092;2024-03-08T04:13:10;43.90;;;20.90;;
57331;SDS011;43164;50.908;18.092;2024-03-08T04:15:37;42.90;;;20.80;;
57331;SDS011;43164;50.908;18.092;2024-03-08T04:18:04;43.60;;;20.80;;
57331;SDS011;43164;50.908;18.092;2024-03-08T04:20:31;40.10;;;18.40;;
57331;SDS011;43164;50.908;18.092;2024-03-08T04:22:59;42.10;;;20.30;;
57331;SDS011;43164;50.908;18.092;2024-03-08T04:25:26;41.50;;;19.50;;
57331;SDS011;43164;50.908;18.092;2024-03-08T04:27:54;42.90;;;19.20;;
57331;SDS011;43164;50.908;18.092;2024-03-08T04:30:21;42.50;;;20.20;;
57331;SDS011;43164;50.908;18.092;2024-03-08T04:32:48;41.40;;;20.30;;
57331;SDS011;43164;50.908;18.092;2024-03-08T04:35:14;42.70;;;19.90;;
57331;SDS011;43164;50.908;18.092;2024-03-08T04:37:42;44.90;;;21.00;;
57331;SDS011;43164;50.908;18.092;2024-03-08T04:40:10;40.90;;;20.70;;
57331;SDS011;43164;50.908;18.092;2024-03-08T04:42:38;41.30;;;19.60;;
57331;SDS011;43164;50.908;18.092;2024-03-08T04:45:07;38.70;;;18.30;;
57331;SDS011;43164;50.908;18.092;2024-03-08T04:47:37;37.90;;;17.30;;
57331;SDS011;43164;50.908;18.092;2024-03-08T04:50:05;38.10;;;17.60;;
57331;SDS011;43164;50.908;18.092;2024-03-08T04:52:33;39.10;;;17.30;;
57331;SDS011;43164;50.908;18.092;2024-03-08T04:55:00;41.50;;;20.10;;
57331;SDS011;43164;50.908;18.092;2024-03-08T04:57:28;44.40;;;21.10;;
57331;SDS011;43164;50.908;18.092;2024-03-08T04:59:56;42.00;;;20.20;;
57331;SDS011;43164;50.908;18.092;2024-03-08T05:02:24;40.70;;;19.00;;
57331;SDS011;43164;50.908;18.092;2024-03-08T05:04:52;41.20;;;19.60;;
57331;SDS011;43164;50.908;18.092;2024-03-08T05:07:19;38.80;;;18.50;;
57331;SDS011;43164;50.908;18.092;2024-03-08T05:09:47;33.80;;;16.60;;
57331;SDS011;43164;50.908;18.092;2024-03-08T05:12:19;38.50;;;17.30;;
57331;SDS011;43164;50.908;18.092;2024-03-08T05:14:46;36.70;;;19.10;;
57331;SDS011;43164;50.908;18.092;2024-03-08T05:17:18;39.20;;;17.80;;
57331;SDS011;43164;50.908;18.092;2024-03-08T05:19:46;41.60;;;18.50;;
57331;SDS011;43164;50.908;18.092;2024-03-08T05:22:14;37.30;;;18.10;;
57331;SDS011;43164;50.908;18.092;2024-03-08T05:24:42;45.30;;;20.40;;
57331;SDS011;43164;50.908;18.092;2024-03-08T05:27:09;41.30;;;18.70;;
57331;SDS011;43164;50.908;18.092;2024-03-08T05:29:37;39.20;;;19.10;;
57331;SDS011;43164;50.908;18.092;2024-03-08T05:32:05;41.00;;;19.10;;
57331;SDS011;43164;50.908;18.092;2024-03-08T05:34:33;37.80;;;18.00;;
57331;SDS011;43164;50.908;18.092;2024-03-08T05:37:01;37.20;;;18.40;;
57331;SDS011;43164;50.908;18.092;2024-03-08T05:39:29;39.30;;;19.30;;
57331;SDS011;43164;50.908;18.092;2024-03-08T05:41:56;41.40;;;19.40;;
57331;SDS011;43164;50.908;18.092;2024-03-08T05:44:24;38.90;;;19.30;;
57331;SDS011;43164;50.908;18.092;2024-03-08T05:46:53;37.20;;;18.80;;
57331;SDS011;43164;50.908;18.092;2024-03-08T05:49:21;39.00;;;19.60;;
57331;SDS011;43164;50.908;18.092;2024-03-08T05:51:47;40.70;;;20.90;;
57331;SDS011;43164;50.908;18.092;2024-03-08T05:54:14;43.20;;;22.20;;
57331;SDS011;43164;50.908;18.092;2024-03-08T05:56:42;43.10;;;22.60;;
57331;SDS011;43164;50.908;18.092;2024-03-08T05:59:11;39.20;;;22.20;;
57331;SDS011;43164;50.908;18.092;2024-03-08T06:01:40;41.80;;;23.30;;
57331;SDS011;43164;50.908;18.092;2024-03-08T06:04:08;43.10;;;21.70;;
57331;SDS011;43164;50.908;18.092;2024-03-08T06:06:36;45.90;;;23.70;;
57331;SDS011;43164;50.908;18.092;2024-03-08T06:09:04;45.70;;;23.90;;
57331;SDS011;43164;50.908;18.092;2024-03-08T06:11:44;42.80;;;23.80;;
57331;SDS011;43164;50.908;18.092;2024-03-08T06:14:12;47.60;;;27.30;;
57331;SDS011;43164;50.908;18.092;2024-03-08T06:16:42;42.40;;;29.10;;
57331;SDS011;43164;50.908;18.092;2024-03-08T06:19:09;34.90;;;24.30;;
57331;SDS011;43164;50.908;18.092;2024-03-08T06:21:36;35.40;;;24.00;;
57331;SDS011;43164;50.908;18.092;2024-03-08T06:24:04;32.60;;;22.10;;
57331;SDS011;43164;50.908;18.092;2024-03-08T06:26:32;30.50;;;20.90;;
57331;SDS011;43164;50.908;18.092;2024-03-08T06:29:00;30.20;;;20.50;;
57331;SDS011;43164;50.908;18.092;2024-03-08T06:31:28;27.50;;;19.50;;
57331;SDS011;43164;50.908;18.092;2024-03-08T06:33:54;26.70;;;18.60;;
57331;SDS011;43164;50.908;18.092;2024-03-08T06:36:21;30.30;;;18.20;;
57331;SDS011;43164;50.908;18.092;2024-03-08T06:38:48;25.60;;;17.60;;
57331;SDS011;43164;50.908;18.092;2024-03-08T06:41:16;26.60;;;17.30;;
57331;SDS011;43164;50.908;18.092;2024-03-08T06:43:46;27.50;;;17.10;;
57331;SDS011;43164;50.908;18.092;2024-03-08T06:46:17;24.80;;;15.50;;
57331;SDS011;43164;50.908;18.092;2024-03-08T06:48:47;26.80;;;17.10;;
57331;SDS011;43164;50.908;18.092;2024-03-08T06:51:15;24.90;;;15.90;;
57331;SDS011;43164;50.908;18.092;2024-03-08T06:53:42;24.30;;;16.10;;
57331;SDS011;43164;50.908;18.092;2024-03-08T06:56:09;27.40;;;17.60;;
57331;SDS011;43164;50.908;18.092;2024-03-08T06:58:37;28.10;;;18.10;;
57331;SDS011;43164;50.908;18.092;2024-03-08T07:01:04;25.40;;;17.60;;
57331;SDS011;43164;50.908;18.092;2024-03-08T07:03:34;26.70;;;19.20;;
57331;SDS011;43164;50.908;18.092;2024-03-08T07:06:01;27.30;;;17.70;;
57331;SDS011;43164;50.908;18.092;2024-03-08T07:08:29;26.50;;;18.20;;
57331;SDS011;43164;50.908;18.092;2024-03-08T07:10:56;25.20;;;17.10;;
57331;SDS011;43164;50.908;18.092;2024-03-08T07:13:25;28.40;;;18.10;;
57331;SDS011;43164;50.908;18.092;2024-03-08T07:15:52;26.70;;;17.30;;
57331;SDS011;43164;50.908;18.092;2024-03-08T07:18:22;25.60;;;17.80;;
57331;SDS011;43164;50.908;18.092;2024-03-08T07:20:48;25.20;;;18.10;;
57331;SDS011;43164;50.908;18.092;2024-03-08T07:23:16;24.40;;;17.70;;
57331;SDS011;43164;50.908;18.092;2024-03-08T07:26:04;23.90;;;16.70;;
57331;SDS011;43164;50.908;18.092;2024-03-08T07:28:31;22.90;;;15.60;;
57331;SDS011;43164;50.908;18.092;2024-03-08T07:30:59;25.40;;;16.80;;
57331;SDS011;43164;50.908;18.092;2024-03-08T07:33:43;23.30;;;15.70;;
57331;SDS011;43164;50.908;18.092;2024-03-08T07:36:18;24.60;;;16.50;;
57331;SDS011;43164;50.908;18.092;2024-03-08T07:38:46;21.90;;;14.90;;
57331;SDS011;43164;50.908;18.092;2024-03-08T07:41:14;22.70;;;15.40;;
57331;SDS011;43164;50.908;18.092;2024-03-08T07:43:43;23.00;;;15.30;;
57331;SDS011;43164;50.908;18.092;2024-03-08T07:46:11;24.00;;;15.50;;
57331;SDS011;43164;50.908;18.092;2024-03-08T07:48:38;20.90;;;14.10;;
57331;SDS011;43164;50.908;18.092;2024-03-08T07:51:06;22.80;;;14.70;;
57331;SDS011;43164;50.908;18.092;2024-03-08T07:53:36;19.40;;;14.00;;
57331;SDS011;43164;50.908;18.092;2024-03-08T07:56:04;19.50;;;13.50;;
57331;SDS011;43164;50.908;18.092;2024-03-08T07:58:32;19.10;;;13.00;;
57331;SDS011;43164;50.908;18.092;2024-03-08T08:00:59;19.80;;;13.20;;
57331;SDS011;43164;50.908;18.092;2024-03-08T08:03:27;19.60;;;12.90;;
57331;SDS011;43164;50.908;18.092;2024-03-08T08:05:55;18.80;;;12.20;;
57331;SDS011;43164;50.908;18.092;2024-03-08T08:08:23;18.60;;;11.60;;
57331;SDS011;43164;50.908;18.092;2024-03-08T08:10:53;18.10;;;11.50;;
57331;SDS011;43164;50.908;18.092;2024-03-08T08:13:21;18.50;;;11.60;;
57331;SDS011;43164;50.908;18.092;2024-03-08T08:15:49;19.00;;;11.60;;
57331;SDS011;43164;50.908;18.092;2024-03-08T08:18:17;20.00;;;11.20;;
57331;SDS011;43164;50.908;18.092;2024-03-08T08:20:50;18.40;;;11.10;;
57331;SDS011;43164;50.908;18.092;2024-03-08T08:23:19;19.30;;;11.00;;
57331;SDS011;43164;50.908;18.092;2024-03-08T08:25:46;19.80;;;11.20;;
57331;SDS011;43164;50.908;18.092;2024-03-08T08:28:18;17.90;;;10.80;;
57331;SDS011;43164;50.908;18.092;2024-03-08T08:30:47;17.80;;;11.50;;
57331;SDS011;43164;50.908;18.092;2024-03-08T08:33:15;17.80;;;11.00;;
57331;SDS011;43164;50.908;18.092;2024-03-08T08:35:43;17.10;;;10.60;;
57331;SDS011;43164;50.908;18.092;2024-03-08T08:38:09;16.20;;;10.00;;
57331;SDS011;43164;50.908;18.092;2024-03-08T08:40:37;16.20;;;10.10;;
57331;SDS011;43164;50.908;18.092;2024-03-08T08:43:04;14.80;;;9.40;;
57331;SDS011;43164;50.908;18.092;2024-03-08T08:45:32;16.60;;;9.70;;
57331;SDS011;43164;50.908;18.092;2024-03-08T08:48:00;15.20;;;10.00;;
57331;SDS011;43164;50.908;18.092;2024-03-08T08:50:28;15.50;;;9.70;;
57331;SDS011;43164;50.908;18.092;2024-03-08T08:52:55;16.30;;;10.00;;
57331;SDS011;43164;50.908;18.092;2024-03-08T08:55:23;15.40;;;9.60;;
57331;SDS011;43164;50.908;18.092;2024-03-08T08:57:55;15.80;;;9.20;;
57331;SDS011;43164;50.908;18.092;2024-03-08T09:00:24;16.10;;;9.40;;
57331;SDS011;43164;50.908;18.092;2024-03-08T09:02:57;16.20;;;9.80;;
57331;SDS011;43164;50.908;18.092;2024-03-08T09:05:24;17.30;;;9.90;;
57331;SDS011;43164;50.908;18.092;2024-03-08T09:07:52;16.20;;;10.20;;
57331;SDS011;43164;50.908;18.092;2024-03-08T09:10:20;16.70;;;10.30;;
57331;SDS011;43164;50.908;18.092;2024-03-08T09:12:48;17.40;;;11.50;;
57331;SDS011;43164;50.908;18.092;2024-03-08T09:15:15;17.70;;;10.70;;
57331;SDS011;43164;50.908;18.092;2024-03-08T09:17:48;17.60;;;11.20;;
57331;SDS011;43164;50.908;18.092;2024-03-08T09:20:17;16.60;;;10.70;;
57331;SDS011;43164;50.908;18.092;2024-03-08T09:22:45;18.00;;;11.00;;
57331;SDS011;43164;50.908;18.092;2024-03-08T09:25:12;16.70;;;10.90;;
57331;SDS011;43164;50.908;18.092;2024-03-08T09:27:42;18.10;;;10.80;;
57331;SDS011;43164;50.908;18.092;2024-03-08T09:30:10;18.10;;;11.20;;
57331;SDS011;43164;50.908;18.092;2024-03-08T09:32:38;20.30;;;11.60;;
57331;SDS011;43164;50.908;18.092;2024-03-08T09:35:06;18.10;;;10.90;;
57331;SDS011;43164;50.908;18.092;2024-03-08T09:37:34;17.70;;;10.90;;
57331;SDS011;43164;50.908;18.092;2024-03-08T09:40:01;15.60;;;10.70;;
57331;SDS011;43164;50.908;18.092;2024-03-08T09:42:31;19.30;;;11.70;;
57331;SDS011;43164;50.908;18.092;2024-03-08T09:44:59;17.40;;;11.30;;
57331;SDS011;43164;50.908;18.092;2024-03-08T09:47:26;17.70;;;10.70;;
57331;SDS011;43164;50.908;18.092;2024-03-08T09:50:01;18.40;;;11.10;;
57331;SDS011;43164;50.908;18.092;2024-03-08T09:52:29;17.10;;;10.10;;
57331;SDS011;43164;50.908;18.092;2024-03-08T09:54:57;19.70;;;11.30;;
57331;SDS011;43164;50.908;18.092;2024-03-08T09:57:29;17.50;;;10.60;;
57331;SDS011;43164;50.908;18.092;2024-03-08T09:59:55;20.00;;;11.40;;
57331;SDS011;43164;50.908;18.092;2024-03-08T10:02:23;18.40;;;10.60;;
57331;SDS011;43164;50.908;18.092;2024-03-08T10:04:51;18.70;;;11.30;;
57331;SDS011;43164;50.908;18.092;2024-03-08T10:07:19;19.00;;;11.10;;
57331;SDS011;43164;50.908;18.092;2024-03-08T10:09:47;19.40;;;11.50;;
57331;SDS011;43164;50.908;18.092;2024-03-08T10:12:19;19.10;;;11.20;;
57331;SDS011;43164;50.908;18.092;2024-03-08T10:14:46;18.00;;;11.30;;
57331;SDS011;43164;50.908;18.092;2024-03-08T10:17:13;18.80;;;9.70;;
57331;SDS011;43164;50.908;18.092;2024-03-08T10:19:49;19.30;;;11.00;;
57331;SDS011;43164;50.908;18.092;2024-03-08T10:22:28;17.60;;;10.70;;
57331;SDS011;43164;50.908;18.092;2024-03-08T10:24:58;18.00;;;11.10;;
57331;SDS011;43164;50.908;18.092;2024-03-08T10:27:25;19.10;;;11.20;;
57331;SDS011;43164;50.908;18.092;2024-03-08T10:29:53;18.40;;;11.10;;
57331;SDS011;43164;50.908;18.092;2024-03-08T10:32:21;16.90;;;10.30;;
57331;SDS011;43164;50.908;18.092;2024-03-08T10:34:48;18.30;;;11.30;;
57331;SDS011;43164;50.908;18.092;2024-03-08T10:37:16;17.90;;;10.60;;
57331;SDS011;43164;50.908;18.092;2024-03-08T10:40:02;19.30;;;11.20;;
57331;SDS011;43164;50.908;18.092;2024-03-08T10:43:02;19.40;;;11.10;;
57331;SDS011;43164;50.908;18.092;2024-03-08T10:45:37;18.20;;;11.40;;
57331;SDS011;43164;50.908;18.092;2024-03-08T10:48:31;18.30;;;10.90;;
57331;SDS011;43164;50.908;18.092;2024-03-08T10:50:59;17.10;;;11.30;;
57331;SDS011;43164;50.908;18.092;2024-03-08T10:53:29;17.50;;;10.50;;
57331;SDS011;43164;50.908;18.092;2024-03-08T10:55:56;17.10;;;10.50;;
57331;SDS011;43164;50.908;18.092;2024-03-08T10:58:28;15.70;;;10.10;;
57331;SDS011;43164;50.908;18.092;2024-03-08T11:00:55;17.50;;;10.70;;
57331;SDS011;43164;50.908;18.092;2024-03-08T11:03:55;18.60;;;10.90;;
57331;SDS011;43164;50.908;18.092;2024-03-08T11:15:09;17.70;;;11.40;;
57331;SDS011;43164;50.908;18.092;2024-03-08T11:17:54;16.20;;;10.30;;
57331;SDS011;43164;50.908;18.092;2024-03-08T11:20:46;18.40;;;11.00;;
57331;SDS011;43164;50.908;18.092;2024-03-08T11:23:22;17.80;;;10.80;;
57331;SDS011;43164;50.908;18.092;2024-03-08T11:26:00;17.50;;;11.10;;
57331;SDS011;43164;50.908;18.092;2024-03-08T11:28:36;18.50;;;11.40;;
57331;SDS011;43164;50.908;18.092;2024-03-08T11:33:35;18.50;;;11.10;;
57331;SDS011;43164;50.908;18.092;2024-03-08T11:36:14;18.70;;;11.40;;
57331;SDS011;43164;50.908;18.092;2024-03-08T11:38:48;18.70;;;11.30;;
57331;SDS011;43164;50.908;18.092;2024-03-08T11:41:16;18.60;;;11.60;;
57331;SDS011;43164;50.908;18.092;2024-03-08T11:43:46;17.60;;;11.00;;
57331;SDS011;43164;50.908;18.092;2024-03-08T11:46:15;17.60;;;11.50;;
57331;SDS011;43164;50.908;18.092;2024-03-08T11:48:46;18.30;;;11.30;;
57331;SDS011;43164;50.908;18.092;2024-03-08T11:51:22;16.50;;;10.60;;
57331;SDS011;43164;50.908;18.092;2024-03-08T11:53:56;19.30;;;11.50;;
57331;SDS011;43164;50.908;18.092;2024-03-08T11:56:24;17.70;;;11.40;;
57331;SDS011;43164;50.908;18.092;2024-03-08T11:59:02;20.00;;;11.70;;
57331;SDS011;43164;50.908;18.092;2024-03-08T12:03:59;17.80;;;10.70;;
57331;SDS011;43164;50.908;18.092;2024-03-08T12:06:59;17.00;;;10.70;;
57331;SDS011;43164;50.908;18.092;2024-03-08T12:09:37;18.80;;;11.20;;
57331;SDS011;43164;50.908;18.092;2024-03-08T12:12:06;17.20;;;10.20;;
57331;SDS011;43164;50.908;18.092;2024-03-08T12:14:43;16.50;;;11.00;;
57331;SDS011;43164;50.908;18.092;2024-03-08T12:17:11;18.10;;;11.20;;
57331;SDS011;43164;50.908;18.092;2024-03-08T12:19:39;16.30;;;10.80;;
57331;SDS011;43164;50.908;18.092;2024-03-08T12:22:09;17.60;;;11.00;;
57331;SDS011;43164;50.908;18.092;2024-03-08T12:24:37;18.00;;;11.00;;
57331;SDS011;43164;50.908;18.092;2024-03-08T12:27:17;18.20;;;11.60;;
57331;SDS011;43164;50.908;18.092;2024-03-08T12:29:46;17.30;;;11.00;;
57331;SDS011;43164;50.908;18.092;2024-03-08T12:32:29;16.10;;;10.90;;
57331;SDS011;43164;50.908;18.092;2024-03-08T12:34:59;18.90;;;11.30;;
57331;SDS011;43164;50.908;18.092;2024-03-08T12:37:33;16.80;;;11.30;;
57331;SDS011;43164;50.908;18.092;2024-03-08T12:40:01;18.30;;;11.60;;
57331;SDS011;43164;50.908;18.092;2024-03-08T12:42:29;17.80;;;11.70;;
57331;SDS011;43164;50.908;18.092;2024-03-08T12:44:58;18.10;;;11.50;;
57331;SDS011;43164;50.908;18.092;2024-03-08T12:47:26;18.20;;;11.70;;
57331;SDS011;43164;50.908;18.092;2024-03-08T12:49:55;18.40;;;11.50;;
57331;SDS011;43164;50.908;18.092;2024-03-08T12:52:24;16.10;;;10.40;;
57331;SDS011;43164;50.908;18.092;2024-03-08T12:54:50;17.90;;;11.70;;
57331;SDS011;43164;50.908;18.092;2024-03-08T12:57:24;17.60;;;11.60;;
57331;SDS011;43164;50.908;18.092;2024-03-08T12:59:56;16.80;;;10.60;;
57331;SDS011;43164;50.908;18.092;2024-03-08T13:02:26;17.00;;;10.50;;
57331;SDS011;43164;50.908;18.092;2024-03-08T13:05:01;16.10;;;10.00;;
57331;SDS011;43164;50.908;18.092;2024-03-08T13:07:28;17.50;;;10.50;;
57331;SDS011;43164;50.908;18.092;2024-03-08T13:09:55;14.90;;;9.80;;
57331;SDS011;43164;50.908;18.092;2024-03-08T13:12:34;15.70;;;10.30;;
57331;SDS011;43164;50.908;18.092;2024-03-08T13:15:04;16.80;;;9.90;;
57331;SDS011;43164;50.908;18.092;2024-03-08T13:17:31;15.00;;;9.30;;
57331;SDS011;43164;50.908;18.092;2024-03-08T13:20:00;15.60;;;9.80;;
57331;SDS011;43164;50.908;18.092;2024-03-08T13:22:31;18.30;;;10.40;;
57331;SDS011;43164;50.908;18.092;2024-03-08T13:24:59;16.90;;;10.50;;
57331;SDS011;43164;50.908;18.092;2024-03-08T13:27:28;16.70;;;10.20;;
57331;SDS011;43164;50.908;18.092;2024-03-08T13:29:55;15.80;;;9.70;;
57331;SDS011;43164;50.908;18.092;2024-03-08T13:32:23;16.20;;;10.50;;
57331;SDS011;43164;50.908;18.092;2024-03-08T13:34:51;15.20;;;9.90;;
57331;SDS011;43164;50.908;18.092;2024-03-08T13:37:20;16.00;;;9.70;;
57331;SDS011;43164;50.908;18.092;2024-03-08T13:39:48;16.20;;;10.30;;
57331;SDS011;43164;50.908;18.092;2024-03-08T13:42:15;18.10;;;10.20;;
57331;SDS011;43164;50.908;18.092;2024-03-08T13:44:45;15.20;;;10.20;;
57331;SDS011;43164;50.908;18.092;2024-03-08T13:47:13;16.10;;;10.10;;
57331;SDS011;43164;50.908;18.092;2024-03-08T13:49:42;16.30;;;10.30;;
57331;SDS011;43164;50.908;18.092;2024-03-08T13:52:10;14.30;;;9.30;;
57331;SDS011;43164;50.908;18.092;2024-03-08T13:54:39;15.20;;;9.50;;
57331;SDS011;43164;50.908;18.092;2024-03-08T13:57:08;13.80;;;8.40;;
57331;SDS011;43164;50.908;18.092;2024-03-08T13:59:35;14.20;;;8.50;;
57331;SDS011;43164;50.908;18.092;2024-03-08T14:02:05;14.80;;;8.80;;
57331;SDS011;43164;50.908;18.092;2024-03-08T14:04:32;14.30;;;8.80;;
57331;SDS011;43164;50.908;18.092;2024-03-08T14:07:00;15.30;;;9.00;;
57331;SDS011;43164;50.908;18.092;2024-03-08T14:09:30;14.40;;;8.90;;
57331;SDS011;43164;50.908;18.092;2024-03-08T14:11:57;14.10;;;8.20;;
57331;SDS011;43164;50.908;18.092;2024-03-08T14:14:26;12.10;;;7.60;;
57331;SDS011;43164;50.908;18.092;2024-03-08T14:16:53;13.50;;;8.00;;
57331;SDS011;43164;50.908;18.092;2024-03-08T14:19:28;15.40;;;8.30;;
57331;SDS011;43164;50.908;18.092;2024-03-08T14:21:57;13.70;;;7.60;;
57331;SDS011;43164;50.908;18.092;2024-03-08T14:24:43;13.30;;;8.30;;
57331;SDS011;43164;50.908;18.092;2024-03-08T14:27:18;13.00;;;8.00;;
57331;SDS011;43164;50.908;18.092;2024-03-08T14:29:46;11.50;;;7.30;;
57331;SDS011;43164;50.908;18.092;2024-03-08T14:32:14;12.90;;;7.70;;
57331;SDS011;43164;50.908;18.092;2024-03-08T14:34:41;13.40;;;7.30;;
57331;SDS011;43164;50.908;18.092;2024-03-08T14:37:10;12.50;;;8.10;;
57331;SDS011;43164;50.908;18.092;2024-03-08T14:39:37;13.90;;;8.00;;
57331;SDS011;43164;50.908;18.092;2024-03-08T14:42:04;13.20;;;7.50;;